sensor_id;sensor_type;location;lat;lon;timestamp;temperature;humidity
18163;DHT22;9206;50.994;4.538;2023-05-29T00:01:38;13.80;99.90
18163;DHT22;9206;50.994;4.538;2023-05-29T00:04:27;13.80;99.90
18163;DHT22;9206;50.994;4.538;2023-05-29T00:07:19;13.80;99.90
18163;DHT22;9206;50.994;4.538;2023-05-29T00:10:08;13.70;99.90
18163;DHT22;9206;50.994;4.538;2023-05-29T00:12:59;13.70;99.90
18163;DHT22;9206;50.994;4.538;2023-05-29T00:16:08;13.60;99.90
18163;DHT22;9206;50.994;4.538;2023-05-29T00:19:15;13.60;99.90
18163;DHT22;9206;50.994;4.538;2023-05-29T00:22:05;13.50;99.90
18163;DHT22;9206;50.994;4.538;2023-05-29T00:24:56;13.50;99.90
18163;DHT22;9206;50.994;4.538;2023-05-29T00:27:43;13.40;99.90
18163;DHT22;9206;50.994;4.538;2023-05-29T00:30:32;13.50;99.90
18163;DHT22;9206;50.994;4.538;2023-05-29T00:33:21;13.40;99.90
18163;DHT22;9206;50.994;4.538;2023-05-29T00:36:10;13.40;99.90
18163;DHT22;9206;50.994;4.538;2023-05-29T00:38:58;13.30;99.90
18163;DHT22;9206;50.994;4.538;2023-05-29T00:41:58;13.30;99.90
18163;DHT22;9206;50.994;4.538;2023-05-29T00:44:45;13.20;99.90
18163;DHT22;9206;50.994;4.538;2023-05-29T00:47:33;13.20;99.90
18163;DHT22;9206;50.994;4.538;2023-05-29T00:50:24;13.10;99.90
18163;DHT22;9206;50.994;4.538;2023-05-29T00:53:14;13.10;99.90
18163;DHT22;9206;50.994;4.538;2023-05-29T00:56:07;13.10;99.90
18163;DHT22;9206;50.994;4.538;2023-05-29T00:59:01;13.00;99.90
18163;DHT22;9206;50.994;4.538;2023-05-29T01:01:51;13.00;99.90
18163;DHT22;9206;50.994;4.538;2023-05-29T01:04:45;12.90;99.90
18163;DHT22;9206;50.994;4.538;2023-05-29T01:07:34;12.80;99.90
18163;DHT22;9206;50.994;4.538;2023-05-29T01:10:28;12.80;99.90
18163;DHT22;9206;50.994;4.538;2023-05-29T01:13:24;12.80;99.90
18163;DHT22;9206;50.994;4.538;2023-05-29T01:16:21;12.70;99.90
18163;DHT22;9206;50.994;4.538;2023-05-29T01:19:19;12.70;99.90
18163;DHT22;9206;50.994;4.538;2023-05-29T01:22:30;12.60;99.90
18163;DHT22;9206;50.994;4.538;2023-05-29T01:25:33;12.60;99.90
18163;DHT22;9206;50.994;4.538;2023-05-29T01:28:26;12.60;99.90
18163;DHT22;9206;50.994;4.538;2023-05-29T01:31:17;12.60;99.90
18163;DHT22;9206;50.994;4.538;2023-05-29T01:34:11;12.50;99.90
18163;DHT22;9206;50.994;4.538;2023-05-29T01:36:59;12.50;99.90
18163;DHT22;9206;50.994;4.538;2023-05-29T01:39:47;12.50;99.90
18163;DHT22;9206;50.994;4.538;2023-05-29T01:42:36;12.60;99.90
18163;DHT22;9206;50.994;4.538;2023-05-29T01:45:26;12.60;99.90
18163;DHT22;9206;50.994;4.538;2023-05-29T01:48:16;12.60;99.90
18163;DHT22;9206;50.994;4.538;2023-05-29T01:51:04;12.60;99.90
18163;DHT22;9206;50.994;4.538;2023-05-29T01:53:59;12.60;99.90
18163;DHT22;9206;50.994;4.538;2023-05-29T01:56:48;12.50;99.90
18163;DHT22;9206;50.994;4.538;2023-05-29T01:59:38;12.40;99.90
18163;DHT22;9206;50.994;4.538;2023-05-29T02:02:27;12.40;99.90
18163;DHT22;9206;50.994;4.538;2023-05-29T02:05:17;12.40;99.90
18163;DHT22;9206;50.994;4.538;2023-05-29T02:08:06;12.30;99.90
18163;DHT22;9206;50.994;4.538;2023-05-29T02:10:58;12.20;99.90
18163;DHT22;9206;50.994;4.538;2023-05-29T02:13:48;12.10;99.90
18163;DHT22;9206;50.994;4.538;2023-05-29T02:16:38;12.10;99.90
18163;DHT22;9206;50.994;4.538;2023-05-29T02:19:28;12.00;99.90
18163;DHT22;9206;50.994;4.538;2023-05-29T02:22:18;11.90;99.90
18163;DHT22;9206;50.994;4.538;2023-05-29T02:25:11;11.90;99.90
18163;DHT22;9206;50.994;4.538;2023-05-29T02:28:02;11.80;99.90
18163;DHT22;9206;50.994;4.538;2023-05-29T02:30:52;11.70;99.90
18163;DHT22;9206;50.994;4.538;2023-05-29T02:33:44;11.60;99.90
18163;DHT22;9206;50.994;4.538;2023-05-29T02:36:47;11.60;99.90
18163;DHT22;9206;50.994;4.538;2023-05-29T02:39:35;11.50;99.90
18163;DHT22;9206;50.994;4.538;2023-05-29T02:42:22;11.50;99.90
18163;DHT22;9206;50.994;4.538;2023-05-29T02:45:11;11.40;99.90
18163;DHT22;9206;50.994;4.538;2023-05-29T02:47:59;11.40;99.90
18163;DHT22;9206;50.994;4.538;2023-05-29T02:50:48;11.40;99.90
18163;DHT22;9206;50.994;4.538;2023-05-29T02:53:40;11.30;99.90
18163;DHT22;9206;50.994;4.538;2023-05-29T02:56:27;11.20;99.90
18163;DHT22;9206;50.994;4.538;2023-05-29T02:59:18;11.20;99.90
18163;DHT22;9206;50.994;4.538;2023-05-29T03:02:06;11.10;99.90
18163;DHT22;9206;50.994;4.538;2023-05-29T03:04:54;11.10;99.90
18163;DHT22;9206;50.994;4.538;2023-05-29T03:07:44;11.00;99.90
18163;DHT22;9206;50.994;4.538;2023-05-29T03:10:34;11.00;99.90
18163;DHT22;9206;50.994;4.538;2023-05-29T03:13:23;11.00;99.90
18163;DHT22;9206;50.994;4.538;2023-05-29T03:16:13;11.00;99.90
18163;DHT22;9206;50.994;4.538;2023-05-29T03:19:06;10.90;99.90
18163;DHT22;9206;50.994;4.538;2023-05-29T03:21:56;10.90;99.90
18163;DHT22;9206;50.994;4.538;2023-05-29T03:24:44;10.90;99.90
18163;DHT22;9206;50.994;4.538;2023-05-29T03:27:33;10.90;99.90
18163;DHT22;9206;50.994;4.538;2023-05-29T03:30:23;10.90;99.90
18163;DHT22;9206;50.994;4.538;2023-05-29T03:33:13;10.80;99.90
18163;DHT22;9206;50.994;4.538;2023-05-29T03:36:00;10.70;99.90
18163;DHT22;9206;50.994;4.538;2023-05-29T03:38:47;10.70;99.90
18163;DHT22;9206;50.994;4.538;2023-05-29T03:41:35;10.60;99.90
18163;DHT22;9206;50.994;4.538;2023-05-29T03:44:24;10.60;99.90
18163;DHT22;9206;50.994;4.538;2023-05-29T03:47:11;10.60;99.90
18163;DHT22;9206;50.994;4.538;2023-05-29T03:49:58;10.60;99.90
18163;DHT22;9206;50.994;4.538;2023-05-29T03:52:47;10.60;99.90
18163;DHT22;9206;50.994;4.538;2023-05-29T03:55:57;10.50;99.90
18163;DHT22;9206;50.994;4.538;2023-05-29T04:01:50;10.50;99.90
18163;DHT22;9206;50.994;4.538;2023-05-29T04:04:38;10.50;99.90
18163;DHT22;9206;50.994;4.538;2023-05-29T04:07:31;10.60;99.90
18163;DHT22;9206;50.994;4.538;2023-05-29T04:10:24;10.60;99.90
18163;DHT22;9206;50.994;4.538;2023-05-29T04:13:17;10.60;99.90
18163;DHT22;9206;50.994;4.538;2023-05-29T04:16:07;10.60;99.90
18163;DHT22;9206;50.994;4.538;2023-05-29T04:18:58;10.60;99.90
18163;DHT22;9206;50.994;4.538;2023-05-29T04:21:45;10.60;99.90
18163;DHT22;9206;50.994;4.538;2023-05-29T04:24:36;10.70;99.90
18163;DHT22;9206;50.994;4.538;2023-05-29T04:27:44;10.70;99.90
18163;DHT22;9206;50.994;4.538;2023-05-29T04:30:36;10.70;99.90
18163;DHT22;9206;50.994;4.538;2023-05-29T04:33:26;10.70;99.90
18163;DHT22;9206;50.994;4.538;2023-05-29T04:36:28;10.70;99.90
18163;DHT22;9206;50.994;4.538;2023-05-29T04:39:20;10.80;99.90
18163;DHT22;9206;50.994;4.538;2023-05-29T04:42:09;10.80;99.90
18163;DHT22;9206;50.994;4.538;2023-05-29T04:44:56;10.90;99.90
18163;DHT22;9206;50.994;4.538;2023-05-29T04:47:46;10.90;99.90
18163;DHT22;9206;50.994;4.538;2023-05-29T04:50:40;11.00;99.90
18163;DHT22;9206;50.994;4.538;2023-05-29T04:53:28;11.00;99.90
18163;DHT22;9206;50.994;4.538;2023-05-29T04:56:17;11.00;99.90
18163;DHT22;9206;50.994;4.538;2023-05-29T04:59:05;11.00;99.90
18163;DHT22;9206;50.994;4.538;2023-05-29T05:01:55;11.10;99.90
18163;DHT22;9206;50.994;4.538;2023-05-29T05:04:53;11.10;99.90
18163;DHT22;9206;50.994;4.538;2023-05-29T05:07:45;11.20;99.90
18163;DHT22;9206;50.994;4.538;2023-05-29T05:10:38;11.30;99.90
18163;DHT22;9206;50.994;4.538;2023-05-29T05:13:25;11.30;99.90
18163;DHT22;9206;50.994;4.538;2023-05-29T05:16:14;11.40;99.90
18163;DHT22;9206;50.994;4.538;2023-05-29T05:19:03;11.50;99.90
18163;DHT22;9206;50.994;4.538;2023-05-29T05:21:57;11.50;99.90
18163;DHT22;9206;50.994;4.538;2023-05-29T05:24:55;11.70;99.90
18163;DHT22;9206;50.994;4.538;2023-05-29T05:27:48;11.70;99.90
18163;DHT22;9206;50.994;4.538;2023-05-29T05:30:39;11.70;99.90
18163;DHT22;9206;50.994;4.538;2023-05-29T05:33:26;11.70;99.90
18163;DHT22;9206;50.994;4.538;2023-05-29T05:36:21;11.70;99.90
18163;DHT22;9206;50.994;4.538;2023-05-29T05:39:08;11.90;99.90
18163;DHT22;9206;50.994;4.538;2023-05-29T05:41:56;12.00;99.90
18163;DHT22;9206;50.994;4.538;2023-05-29T05:44:44;12.10;99.90
18163;DHT22;9206;50.994;4.538;2023-05-29T05:47:35;12.20;99.90
18163;DHT22;9206;50.994;4.538;2023-05-29T05:50:25;12.30;99.90
18163;DHT22;9206;50.994;4.538;2023-05-29T05:53:13;12.40;99.90
18163;DHT22;9206;50.994;4.538;2023-05-29T05:56:04;12.50;99.90
18163;DHT22;9206;50.994;4.538;2023-05-29T05:58:51;12.70;99.90
18163;DHT22;9206;50.994;4.538;2023-05-29T06:01:40;13.00;99.90
18163;DHT22;9206;50.994;4.538;2023-05-29T06:04:28;13.60;99.90
18163;DHT22;9206;50.994;4.538;2023-05-29T06:07:20;14.60;99.90
18163;DHT22;9206;50.994;4.538;2023-05-29T06:10:13;15.10;99.90
18163;DHT22;9206;50.994;4.538;2023-05-29T06:13:03;15.40;99.90
18163;DHT22;9206;50.994;4.538;2023-05-29T06:15:50;15.80;99.90
18163;DHT22;9206;50.994;4.538;2023-05-29T06:18:52;16.00;99.90
18163;DHT22;9206;50.994;4.538;2023-05-29T06:21:40;16.30;99.90
18163;DHT22;9206;50.994;4.538;2023-05-29T06:24:27;16.50;99.90
18163;DHT22;9206;50.994;4.538;2023-05-29T06:27:17;16.90;99.90
18163;DHT22;9206;50.994;4.538;2023-05-29T06:30:08;16.90;99.90
18163;DHT22;9206;50.994;4.538;2023-05-29T06:32:58;17.70;99.90
18163;DHT22;9206;50.994;4.538;2023-05-29T06:35:49;18.20;99.90
18163;DHT22;9206;50.994;4.538;2023-05-29T06:38:39;18.60;99.90
18163;DHT22;9206;50.994;4.538;2023-05-29T06:41:42;18.50;99.90
18163;DHT22;9206;50.994;4.538;2023-05-29T06:44:40;18.40;99.90
18163;DHT22;9206;50.994;4.538;2023-05-29T06:47:29;18.40;99.90
18163;DHT22;9206;50.994;4.538;2023-05-29T06:50:25;18.80;99.90
18163;DHT22;9206;50.994;4.538;2023-05-29T06:53:17;18.90;99.90
18163;DHT22;9206;50.994;4.538;2023-05-29T06:56:25;18.90;99.90
18163;DHT22;9206;50.994;4.538;2023-05-29T06:59:14;19.00;99.90
18163;DHT22;9206;50.994;4.538;2023-05-29T07:02:07;19.40;99.90
18163;DHT22;9206;50.994;4.538;2023-05-29T07:04:58;20.00;99.90
18163;DHT22;9206;50.994;4.538;2023-05-29T07:07:46;20.10;99.90
18163;DHT22;9206;50.994;4.538;2023-05-29T07:10:36;20.20;99.90
18163;DHT22;9206;50.994;4.538;2023-05-29T07:13:25;20.20;99.90
18163;DHT22;9206;50.994;4.538;2023-05-29T07:16:21;19.80;99.90
18163;DHT22;9206;50.994;4.538;2023-05-29T07:19:08;19.90;99.90
18163;DHT22;9206;50.994;4.538;2023-05-29T07:21:57;20.10;99.90
18163;DHT22;9206;50.994;4.538;2023-05-29T07:25:14;20.20;99.90
18163;DHT22;9206;50.994;4.538;2023-05-29T07:28:04;20.80;99.90
18163;DHT22;9206;50.994;4.538;2023-05-29T07:30:52;20.80;99.90
18163;DHT22;9206;50.994;4.538;2023-05-29T07:33:41;21.60;99.90
18163;DHT22;9206;50.994;4.538;2023-05-29T07:36:29;21.90;99.90
18163;DHT22;9206;50.994;4.538;2023-05-29T07:39:17;21.80;99.90
18163;DHT22;9206;50.994;4.538;2023-05-29T07:42:06;22.10;99.90
18163;DHT22;9206;50.994;4.538;2023-05-29T07:45:04;22.10;99.90
18163;DHT22;9206;50.994;4.538;2023-05-29T07:47:55;21.80;99.90
18163;DHT22;9206;50.994;4.538;2023-05-29T07:50:42;21.80;99.90
18163;DHT22;9206;50.994;4.538;2023-05-29T07:53:33;21.90;99.90
18163;DHT22;9206;50.994;4.538;2023-05-29T07:56:20;22.00;99.90
18163;DHT22;9206;50.994;4.538;2023-05-29T07:59:09;22.20;99.90
18163;DHT22;9206;50.994;4.538;2023-05-29T08:01:59;22.20;99.90
18163;DHT22;9206;50.994;4.538;2023-05-29T08:04:48;22.40;99.90
18163;DHT22;9206;50.994;4.538;2023-05-29T08:07:40;22.70;99.90
18163;DHT22;9206;50.994;4.538;2023-05-29T08:10:32;22.70;99.90
18163;DHT22;9206;50.994;4.538;2023-05-29T08:13:21;22.90;99.90
18163;DHT22;9206;50.994;4.538;2023-05-29T08:16:09;23.10;99.90
18163;DHT22;9206;50.994;4.538;2023-05-29T08:18:58;23.60;99.90
18163;DHT22;9206;50.994;4.538;2023-05-29T08:21:48;22.80;99.90
18163;DHT22;9206;50.994;4.538;2023-05-29T08:24:35;22.80;99.90
18163;DHT22;9206;50.994;4.538;2023-05-29T08:27:23;22.20;99.90
18163;DHT22;9206;50.994;4.538;2023-05-29T08:30:12;22.70;99.90
18163;DHT22;9206;50.994;4.538;2023-05-29T08:32:59;22.70;99.90
18163;DHT22;9206;50.994;4.538;2023-05-29T08:35:49;23.20;99.90
18163;DHT22;9206;50.994;4.538;2023-05-29T08:38:42;23.60;99.90
18163;DHT22;9206;50.994;4.538;2023-05-29T08:41:38;23.90;99.90
18163;DHT22;9206;50.994;4.538;2023-05-29T08:44:30;24.60;99.90
18163;DHT22;9206;50.994;4.538;2023-05-29T08:47:19;24.70;99.90
18163;DHT22;9206;50.994;4.538;2023-05-29T08:50:08;25.30;99.90
18163;DHT22;9206;50.994;4.538;2023-05-29T08:52:57;25.40;99.90
18163;DHT22;9206;50.994;4.538;2023-05-29T08:55:44;25.20;99.90
18163;DHT22;9206;50.994;4.538;2023-05-29T08:58:33;25.50;99.90
18163;DHT22;9206;50.994;4.538;2023-05-29T09:01:21;25.10;99.90
18163;DHT22;9206;50.994;4.538;2023-05-29T09:04:09;24.80;99.90
18163;DHT22;9206;50.994;4.538;2023-05-29T09:06:57;24.30;99.90
18163;DHT22;9206;50.994;4.538;2023-05-29T09:09:51;24.20;99.90
18163;DHT22;9206;50.994;4.538;2023-05-29T09:12:44;24.50;99.90
18163;DHT22;9206;50.994;4.538;2023-05-29T09:15:37;24.20;99.90
18163;DHT22;9206;50.994;4.538;2023-05-29T09:18:29;24.50;99.90
18163;DHT22;9206;50.994;4.538;2023-05-29T09:21:26;25.30;99.90
18163;DHT22;9206;50.994;4.538;2023-05-29T09:24:14;24.60;99.90
18163;DHT22;9206;50.994;4.538;2023-05-29T09:27:04;24.60;99.90
18163;DHT22;9206;50.994;4.538;2023-05-29T09:29:55;25.10;99.90
18163;DHT22;9206;50.994;4.538;2023-05-29T09:32:43;24.60;99.90
18163;DHT22;9206;50.994;4.538;2023-05-29T09:35:34;25.00;99.90
18163;DHT22;9206;50.994;4.538;2023-05-29T09:38:21;25.70;99.90
18163;DHT22;9206;50.994;4.538;2023-05-29T09:41:09;25.80;99.90
18163;DHT22;9206;50.994;4.538;2023-05-29T09:44:01;25.90;99.90
18163;DHT22;9206;50.994;4.538;2023-05-29T09:47:07;26.80;99.90
18163;DHT22;9206;50.994;4.538;2023-05-29T09:50:00;27.20;99.90
18163;DHT22;9206;50.994;4.538;2023-05-29T09:52:50;26.40;99.90
18163;DHT22;9206;50.994;4.538;2023-05-29T09:55:44;25.80;99.90
18163;DHT22;9206;50.994;4.538;2023-05-29T09:58:32;25.60;99.90
18163;DHT22;9206;50.994;4.538;2023-05-29T10:01:23;25.70;99.90
18163;DHT22;9206;50.994;4.538;2023-05-29T10:04:13;26.10;99.90
18163;DHT22;9206;50.994;4.538;2023-05-29T10:07:08;26.40;99.90
18163;DHT22;9206;50.994;4.538;2023-05-29T10:09:59;26.40;99.90
18163;DHT22;9206;50.994;4.538;2023-05-29T10:12:53;26.20;99.90
18163;DHT22;9206;50.994;4.538;2023-05-29T10:15:46;25.50;99.90
18163;DHT22;9206;50.994;4.538;2023-05-29T10:18:44;25.30;99.90
18163;DHT22;9206;50.994;4.538;2023-05-29T10:21:38;25.90;99.90
18163;DHT22;9206;50.994;4.538;2023-05-29T10:24:33;26.60;99.90
18163;DHT22;9206;50.994;4.538;2023-05-29T10:27:21;26.00;99.90
18163;DHT22;9206;50.994;4.538;2023-05-29T10:30:17;25.20;99.90
18163;DHT22;9206;50.994;4.538;2023-05-29T10:33:35;25.90;99.90
18163;DHT22;9206;50.994;4.538;2023-05-29T10:39:49;26.40;99.90
18163;DHT22;9206;50.994;4.538;2023-05-29T10:42:45;26.10;99.90
18163;DHT22;9206;50.994;4.538;2023-05-29T10:45:48;26.00;99.90
18163;DHT22;9206;50.994;4.538;2023-05-29T10:48:40;26.50;99.90
18163;DHT22;9206;50.994;4.538;2023-05-29T10:51:28;27.10;99.90
18163;DHT22;9206;50.994;4.538;2023-05-29T10:54:23;27.60;99.90
18163;DHT22;9206;50.994;4.538;2023-05-29T10:57:11;27.70;99.90
18163;DHT22;9206;50.994;4.538;2023-05-29T11:00:03;27.80;99.90
18163;DHT22;9206;50.994;4.538;2023-05-29T11:02:52;27.10;99.90
18163;DHT22;9206;50.994;4.538;2023-05-29T11:05:56;26.80;99.90
18163;DHT22;9206;50.994;4.538;2023-05-29T11:08:55;26.80;99.90
18163;DHT22;9206;50.994;4.538;2023-05-29T11:11:46;26.40;99.90
18163;DHT22;9206;50.994;4.538;2023-05-29T11:15:03;26.20;99.90
18163;DHT22;9206;50.994;4.538;2023-05-29T11:17:54;26.70;99.90
18163;DHT22;9206;50.994;4.538;2023-05-29T11:20:51;27.00;99.90
18163;DHT22;9206;50.994;4.538;2023-05-29T11:23:42;27.20;99.90
18163;DHT22;9206;50.994;4.538;2023-05-29T11:26:30;26.60;99.90
18163;DHT22;9206;50.994;4.538;2023-05-29T11:29:21;26.20;99.90
18163;DHT22;9206;50.994;4.538;2023-05-29T11:32:13;25.70;99.90
18163;DHT22;9206;50.994;4.538;2023-05-29T11:35:08;25.90;99.90
18163;DHT22;9206;50.994;4.538;2023-05-29T11:37:56;26.40;99.90
18163;DHT22;9206;50.994;4.538;2023-05-29T11:40:47;26.50;99.90
18163;DHT22;9206;50.994;4.538;2023-05-29T11:43:34;26.20;99.90
18163;DHT22;9206;50.994;4.538;2023-05-29T11:46:23;25.90;99.90
18163;DHT22;9206;50.994;4.538;2023-05-29T11:49:12;25.90;99.90
18163;DHT22;9206;50.994;4.538;2023-05-29T11:55:43;25.60;99.90
18163;DHT22;9206;50.994;4.538;2023-05-29T11:58:33;25.00;99.90
18163;DHT22;9206;50.994;4.538;2023-05-29T12:01:22;24.80;99.90
18163;DHT22;9206;50.994;4.538;2023-05-29T12:04:21;24.70;99.90
18163;DHT22;9206;50.994;4.538;2023-05-29T12:07:17;24.70;99.90
18163;DHT22;9206;50.994;4.538;2023-05-29T12:10:11;24.70;99.90
18163;DHT22;9206;50.994;4.538;2023-05-29T12:13:01;25.10;99.90
18163;DHT22;9206;50.994;4.538;2023-05-29T12:15:51;25.00;99.90
18163;DHT22;9206;50.994;4.538;2023-05-29T12:18:44;25.00;99.90
18163;DHT22;9206;50.994;4.538;2023-05-29T12:21:35;25.00;99.90
18163;DHT22;9206;50.994;4.538;2023-05-29T12:24:53;24.80;99.90
18163;DHT22;9206;50.994;4.538;2023-05-29T12:27:49;25.40;99.90
18163;DHT22;9206;50.994;4.538;2023-05-29T12:30:38;25.40;99.90
18163;DHT22;9206;50.994;4.538;2023-05-29T12:33:28;25.50;99.90
18163;DHT22;9206;50.994;4.538;2023-05-29T12:36:18;25.20;99.90
18163;DHT22;9206;50.994;4.538;2023-05-29T12:39:10;25.30;99.90
18163;DHT22;9206;50.994;4.538;2023-05-29T12:42:00;25.10;99.90
18163;DHT22;9206;50.994;4.538;2023-05-29T12:45:00;25.30;99.90
18163;DHT22;9206;50.994;4.538;2023-05-29T12:47:52;25.60;99.90
18163;DHT22;9206;50.994;4.538;2023-05-29T12:50:44;25.80;99.90
18163;DHT22;9206;50.994;4.538;2023-05-29T12:53:33;26.20;99.90
18163;DHT22;9206;50.994;4.538;2023-05-29T12:56:22;25.60;99.90
18163;DHT22;9206;50.994;4.538;2023-05-29T12:59:18;25.40;99.90
18163;DHT22;9206;50.994;4.538;2023-05-29T13:02:07;25.10;99.90
18163;DHT22;9206;50.994;4.538;2023-05-29T13:04:54;25.30;99.90
18163;DHT22;9206;50.994;4.538;2023-05-29T13:07:46;25.70;99.90
18163;DHT22;9206;50.994;4.538;2023-05-29T13:10:38;25.50;99.90
18163;DHT22;9206;50.994;4.538;2023-05-29T13:13:26;25.40;99.90
18163;DHT22;9206;50.994;4.538;2023-05-29T13:16:19;25.40;99.90
18163;DHT22;9206;50.994;4.538;2023-05-29T13:19:07;24.50;99.90
18163;DHT22;9206;50.994;4.538;2023-05-29T13:21:54;24.20;99.90
18163;DHT22;9206;50.994;4.538;2023-05-29T13:24:47;24.60;99.90
18163;DHT22;9206;50.994;4.538;2023-05-29T13:27:40;24.80;99.90
18163;DHT22;9206;50.994;4.538;2023-05-29T13:30:32;25.00;99.90
18163;DHT22;9206;50.994;4.538;2023-05-29T13:33:19;25.10;99.90
18163;DHT22;9206;50.994;4.538;2023-05-29T13:36:08;24.90;99.90
18163;DHT22;9206;50.994;4.538;2023-05-29T13:38:58;24.90;99.90
18163;DHT22;9206;50.994;4.538;2023-05-29T13:41:45;25.10;99.90
18163;DHT22;9206;50.994;4.538;2023-05-29T13:44:40;25.30;99.90
18163;DHT22;9206;50.994;4.538;2023-05-29T13:47:29;25.10;99.90
18163;DHT22;9206;50.994;4.538;2023-05-29T13:50:20;25.00;99.90
18163;DHT22;9206;50.994;4.538;2023-05-29T13:53:15;25.20;99.90
18163;DHT22;9206;50.994;4.538;2023-05-29T13:56:05;25.10;99.90
18163;DHT22;9206;50.994;4.538;2023-05-29T13:58:52;24.90;99.90
18163;DHT22;9206;50.994;4.538;2023-05-29T14:01:41;25.10;99.90
18163;DHT22;9206;50.994;4.538;2023-05-29T14:04:31;25.20;99.90
18163;DHT22;9206;50.994;4.538;2023-05-29T14:07:18;25.20;99.90
18163;DHT22;9206;50.994;4.538;2023-05-29T14:10:06;25.00;99.90
18163;DHT22;9206;50.994;4.538;2023-05-29T14:12:54;24.80;99.90
18163;DHT22;9206;50.994;4.538;2023-05-29T14:15:41;24.90;99.90
18163;DHT22;9206;50.994;4.538;2023-05-29T14:18:31;25.10;99.90
18163;DHT22;9206;50.994;4.538;2023-05-29T14:21:19;25.00;99.90
18163;DHT22;9206;50.994;4.538;2023-05-29T14:24:13;25.10;99.90
18163;DHT22;9206;50.994;4.538;2023-05-29T14:27:01;24.80;99.90
18163;DHT22;9206;50.994;4.538;2023-05-29T14:29:48;24.70;99.90
18163;DHT22;9206;50.994;4.538;2023-05-29T14:32:36;24.70;99.90
18163;DHT22;9206;50.994;4.538;2023-05-29T14:35:27;24.80;99.90
18163;DHT22;9206;50.994;4.538;2023-05-29T14:38:14;24.70;99.90
18163;DHT22;9206;50.994;4.538;2023-05-29T14:41:04;24.60;99.90
18163;DHT22;9206;50.994;4.538;2023-05-29T14:43:52;24.70;99.90
18163;DHT22;9206;50.994;4.538;2023-05-29T14:46:49;24.80;99.90
18163;DHT22;9206;50.994;4.538;2023-05-29T14:49:37;24.40;99.90
18163;DHT22;9206;50.994;4.538;2023-05-29T14:52:27;24.30;99.90
18163;DHT22;9206;50.994;4.538;2023-05-29T14:55:15;24.10;99.90
18163;DHT22;9206;50.994;4.538;2023-05-29T14:58:07;24.00;99.90
18163;DHT22;9206;50.994;4.538;2023-05-29T15:01:03;23.80;99.90
18163;DHT22;9206;50.994;4.538;2023-05-29T15:03:50;23.90;99.90
18163;DHT22;9206;50.994;4.538;2023-05-29T15:06:38;23.80;99.90
18163;DHT22;9206;50.994;4.538;2023-05-29T15:09:29;23.80;99.90
18163;DHT22;9206;50.994;4.538;2023-05-29T15:12:16;23.70;99.90
18163;DHT22;9206;50.994;4.538;2023-05-29T15:15:04;24.10;99.90
18163;DHT22;9206;50.994;4.538;2023-05-29T15:17:52;24.20;99.90
18163;DHT22;9206;50.994;4.538;2023-05-29T15:20:42;24.00;99.90
18163;DHT22;9206;50.994;4.538;2023-05-29T15:23:33;23.70;99.90
18163;DHT22;9206;50.994;4.538;2023-05-29T15:26:33;23.90;99.90
18163;DHT22;9206;50.994;4.538;2023-05-29T15:29:20;23.80;99.90
18163;DHT22;9206;50.994;4.538;2023-05-29T15:32:10;23.60;99.90
18163;DHT22;9206;50.994;4.538;2023-05-29T15:35:04;23.40;99.90
18163;DHT22;9206;50.994;4.538;2023-05-29T15:37:52;23.10;99.90
18163;DHT22;9206;50.994;4.538;2023-05-29T15:40:47;23.00;99.90
18163;DHT22;9206;50.994;4.538;2023-05-29T15:43:38;23.10;99.90
18163;DHT22;9206;50.994;4.538;2023-05-29T15:46:29;22.90;99.90
18163;DHT22;9206;50.994;4.538;2023-05-29T15:49:16;22.90;99.90
18163;DHT22;9206;50.994;4.538;2023-05-29T15:52:06;22.80;99.90
18163;DHT22;9206;50.994;4.538;2023-05-29T15:55:01;22.40;99.90
18163;DHT22;9206;50.994;4.538;2023-05-29T15:58:03;22.20;99.90
18163;DHT22;9206;50.994;4.538;2023-05-29T16:00:54;21.90;99.90
18163;DHT22;9206;50.994;4.538;2023-05-29T16:03:42;22.00;99.90
18163;DHT22;9206;50.994;4.538;2023-05-29T16:07:08;22.20;99.90
18163;DHT22;9206;50.994;4.538;2023-05-29T16:10:26;22.30;99.90
18163;DHT22;9206;50.994;4.538;2023-05-29T16:13:21;22.30;99.90
18163;DHT22;9206;50.994;4.538;2023-05-29T16:16:14;22.20;99.90
18163;DHT22;9206;50.994;4.538;2023-05-29T16:19:04;22.00;99.90
18163;DHT22;9206;50.994;4.538;2023-05-29T16:22:06;22.00;99.90
18163;DHT22;9206;50.994;4.538;2023-05-29T16:24:55;22.00;99.90
18163;DHT22;9206;50.994;4.538;2023-05-29T16:28:00;21.90;99.90
18163;DHT22;9206;50.994;4.538;2023-05-29T16:30:47;21.50;99.90
18163;DHT22;9206;50.994;4.538;2023-05-29T16:33:38;21.60;99.90
18163;DHT22;9206;50.994;4.538;2023-05-29T16:36:28;21.40;99.90
18163;DHT22;9206;50.994;4.538;2023-05-29T16:39:28;21.40;99.90
18163;DHT22;9206;50.994;4.538;2023-05-29T16:42:19;21.40;99.90
18163;DHT22;9206;50.994;4.538;2023-05-29T16:45:14;21.30;99.90
18163;DHT22;9206;50.994;4.538;2023-05-29T16:48:05;21.10;99.90
18163;DHT22;9206;50.994;4.538;2023-05-29T16:50:54;21.10;99.90
18163;DHT22;9206;50.994;4.538;2023-05-29T16:53:50;21.10;99.90
18163;DHT22;9206;50.994;4.538;2023-05-29T16:57:01;21.00;99.90
18163;DHT22;9206;50.994;4.538;2023-05-29T16:59:48;20.80;99.90
18163;DHT22;9206;50.994;4.538;2023-05-29T17:02:37;20.70;99.90
18163;DHT22;9206;50.994;4.538;2023-05-29T17:05:26;20.60;99.90
18163;DHT22;9206;50.994;4.538;2023-05-29T17:08:21;20.60;99.90
18163;DHT22;9206;50.994;4.538;2023-05-29T17:11:14;20.60;99.90
18163;DHT22;9206;50.994;4.538;2023-05-29T17:14:19;20.40;99.90
18163;DHT22;9206;50.994;4.538;2023-05-29T17:17:10;20.30;99.90
18163;DHT22;9206;50.994;4.538;2023-05-29T17:20:06;20.20;99.90
18163;DHT22;9206;50.994;4.538;2023-05-29T17:22:54;20.10;99.90
18163;DHT22;9206;50.994;4.538;2023-05-29T17:25:55;20.10;99.90
18163;DHT22;9206;50.994;4.538;2023-05-29T17:28:42;20.00;99.90
18163;DHT22;9206;50.994;4.538;2023-05-29T17:31:30;19.90;99.90
18163;DHT22;9206;50.994;4.538;2023-05-29T17:34:21;19.90;99.90
18163;DHT22;9206;50.994;4.538;2023-05-29T17:37:26;19.90;99.90
18163;DHT22;9206;50.994;4.538;2023-05-29T17:40:32;19.90;99.90
18163;DHT22;9206;50.994;4.538;2023-05-29T17:43:21;19.80;99.90
18163;DHT22;9206;50.994;4.538;2023-05-29T17:46:15;19.90;99.90
18163;DHT22;9206;50.994;4.538;2023-05-29T17:59:28;19.60;99.90
18163;DHT22;9206;50.994;4.538;2023-05-29T18:02:16;19.50;99.90
18163;DHT22;9206;50.994;4.538;2023-05-29T18:09:06;19.40;99.90
18163;DHT22;9206;50.994;4.538;2023-05-29T18:11:55;19.40;99.90
18163;DHT22;9206;50.994;4.538;2023-05-29T18:18:25;19.40;99.90
18163;DHT22;9206;50.994;4.538;2023-05-29T18:21:12;19.40;99.90
18163;DHT22;9206;50.994;4.538;2023-05-29T18:24:05;19.40;99.90
18163;DHT22;9206;50.994;4.538;2023-05-29T18:26:55;19.30;99.90
18163;DHT22;9206;50.994;4.538;2023-05-29T18:29:42;19.30;99.90
18163;DHT22;9206;50.994;4.538;2023-05-29T18:32:38;19.30;99.90
18163;DHT22;9206;50.994;4.538;2023-05-29T18:35:27;19.30;99.90
18163;DHT22;9206;50.994;4.538;2023-05-29T18:38:18;19.20;99.90
18163;DHT22;9206;50.994;4.538;2023-05-29T18:41:17;19.10;99.90
18163;DHT22;9206;50.994;4.538;2023-05-29T18:47:25;19.00;99.90
18163;DHT22;9206;50.994;4.538;2023-05-29T18:50:15;18.80;99.90
18163;DHT22;9206;50.994;4.538;2023-05-29T18:56:49;18.70;99.90